Saint Inigoes, MD

12:22 AM EDT on September 02, 2014 (GMT -0400)
Webster Naval Outlying Field | Change Station
CLOSE
Current Station
Airport
Location: St. Inigoes,
Elevation: 20 ft
Nearby Weather Stations

Elev 20 ft 38.15 °N, 76.43 °W | Updated 29 minutes ago

Clear
Clear
75 °F
Feels Like 75 °F
N
0
Wind Variable Wind from North

Today
High -- | Low -- °F
--% Chance of Precip.
Yesterday
High -- | Low -- °F
Precip. -- in
6:36 AM 7:33 PM
Waxing Crescent, 47% visible
Pressure 29.98 in
Visibility 10.0 miles
Clouds Clear
Dew Point 70 °F
Humidity 84%
Rainfall 0.36 in
Snow Depth Not available.
UV 0 out of 12
Pollen 7.50 out of 12
Air Quality Not available.
Flu Activity Not available.
METAR KNUI 020353Z AUTO 00000KT 10SM CLR 24/21 A2998 RMK AO2 SLP151 T02390211

More Conditions Fewer Conditions

Pressure 29.98 in
Visibility 10.0 miles
Clouds Clear
Dew Point 70 °F
Humidity 84%
Rainfall 0.36 in
Snow Depth Not available.
UV 0 out of 12
Pollen 7.50 out of 12
Air Quality Not available.
Flu Activity Not available.
METAR KNUI 020353Z AUTO 00000KT 10SM CLR 24/21 A2998 RMK AO2 SLP151 T02390211

More Conditions Fewer Conditions

10-Day Weather Forecast

Almanac

Astronomy

Sep. 02, 2014 Rise Set
Actual Time 6:36 AM EDT 7:33 PM EDT
Civil Twilight 6:09 AM EDT 8:00 PM EDT
Nautical Twilight 5:37 AM EDT 8:32 PM EDT
Astronomical Twilight 5:03 AM EDT 9:05 PM EDT
Moon 2:11 PM EDT No Moon Set
Length of Visible Light 13h 51m
Length of Day
12h 57m
Tomorrow will be 2m 22s shorter.
Waxing Crescent, 47% of the Moon is Illuminated
Today
Waxing Crescent
Sep 2
First Quarter
Sep 8
Full
Sep 15
Last Quarter
Sep 24
New

Yesterday's Extremes

State Highs State Lows

Community

WunderPhotos

Upload Photos

1,749,560 photos uploaded!

WunderBlogs® & News

Nearby

Snow Depth

Station Depth Elevation
No new snow has been reported.

Earthquake Activity

City Distance Mag. Time & Date
No recent earthquake activity has been reported nearby.
Minimum magnitude displayed is 2.5.

Coastal Water Temperatures

Place Temperature
Lewisetta, VA 82.0 °F
Solomons Island, MD 81.0 °F
Bishops Head, MD 82.0 °F

Nearby Weather Stations